Terminal Aerodrome Forecast
Issued by NWS

Home | Current Version | Previous Version | Text Only | Print | Product List | Glossary Off
Versions: 1 2 3 4 5 6 7 8 9 10 11 12 13 14 15 16 17

722
FTUS43 KTOP 201120
TAFMHK
TAF
KMHK 201120Z 2012/2112 VRB03KT P6SM SCT130
     FM201500 22008KT P6SM SCT150
     FM210000 19006KT P6SM VCTS SCT100CB
     FM210600 20005KT P6SM SCT150=

USA.gov is the U.S. government's official web portal to all federal, state and local government web resources and services.